createdAt,value
2018-03-27T00:00:44.568Z,37.17
2018-03-27T00:01:43.869Z,37.36
2018-03-27T00:02:43.864Z,37.36
2018-03-27T00:03:43.821Z,37.36
2018-03-27T00:04:43.797Z,37.46
2018-03-27T00:05:43.777Z,37.46
2018-03-27T00:06:43.750Z,37.73
2018-03-27T00:07:43.730Z,37.55
2018-03-27T00:08:43.694Z,37.94
2018-03-27T00:09:43.678Z,37.85
2018-03-27T00:10:43.653Z,37.94
2018-03-27T00:11:44.578Z,37.92
2018-03-27T00:12:43.929Z,38.13
2018-03-27T00:13:43.587Z,38.23
2018-03-27T00:14:43.554Z,38.13
2018-03-27T00:15:43.528Z,37.94
2018-03-27T00:16:43.502Z,38.04
2018-03-27T00:17:43.476Z,38.04
2018-03-27T00:18:43.456Z,38.04
2018-03-27T00:19:43.434Z,38.13
2018-03-27T00:20:43.417Z,37.75
2018-03-27T00:21:43.384Z,37.94
2018-03-27T00:22:44.069Z,37.75
2018-03-27T00:23:43.329Z,37.94
2018-03-27T00:24:43.343Z,38.12
2018-03-27T00:25:43.316Z,38.23
2018-03-27T00:26:43.262Z,38.23
2018-03-27T00:27:43.227Z,38.13
2018-03-27T00:28:43.211Z,38.31
2018-03-27T00:29:43.191Z,38.13
2018-03-27T00:30:43.158Z,38.62
2018-03-27T00:31:43.132Z,38.21
2018-03-27T00:32:43.114Z,38.23
2018-03-27T00:33:43.092Z,38.31
2018-03-27T00:34:43.063Z,38.23
2018-03-27T00:35:43.054Z,38.53
2018-03-27T00:36:43.010Z,38.31
2018-03-27T00:37:42.995Z,38.50
2018-03-27T00:38:42.965Z,38.43
2018-03-27T00:39:42.941Z,38.60
2018-03-27T00:40:42.915Z,38.53
2018-03-27T00:41:42.900Z,38.70
2018-03-27T00:42:42.878Z,38.89
2018-03-27T00:43:42.874Z,39.47
2018-03-27T00:44:42.825Z,38.79
2018-03-27T00:45:42.798Z,39.11
2018-03-27T00:46:42.772Z,39.11
2018-03-27T00:47:42.743Z,38.89
2018-03-27T00:48:42.738Z,38.79
2018-03-27T00:49:42.737Z,38.89
2018-03-27T00:50:42.679Z,39.09
2018-03-27T00:51:42.647Z,39.09
2018-03-27T00:52:42.643Z,38.70
2018-03-27T00:53:42.617Z,39.18
2018-03-27T00:54:42.571Z,38.79
2018-03-27T00:55:43.097Z,38.70
2018-03-27T00:56:42.525Z,38.89
2018-03-27T00:57:42.498Z,38.89
2018-03-27T00:58:42.480Z,38.79
2018-03-27T00:59:42.468Z,38.79
2018-03-27T01:00:42.424Z,38.99
2018-03-27T01:01:43.092Z,39.47
2018-03-27T01:02:42.381Z,39.47
2018-03-27T01:03:42.352Z,39.18
2018-03-27T01:04:42.325Z,39.28
2018-03-27T01:05:42.300Z,39.37
2018-03-27T01:06:42.276Z,39.18
2018-03-27T01:07:42.246Z,39.28
2018-03-27T01:08:42.250Z,39.67
2018-03-27T01:09:42.203Z,39.76
2018-03-27T01:10:42.182Z,39.57
2018-03-27T01:11:42.152Z,39.57
2018-03-27T01:12:43.122Z,39.95
2018-03-27T01:13:42.107Z,40.05
2018-03-27T01:14:42.083Z,39.67
2018-03-27T01:15:42.057Z,39.67
2018-03-27T01:16:42.046Z,39.76
2018-03-27T01:17:42.591Z,39.76
2018-03-27T01:18:41.983Z,39.76
2018-03-27T01:19:41.958Z,39.76
2018-03-27T01:20:41.965Z,39.67
2018-03-27T01:21:41.922Z,39.67
2018-03-27T01:22:41.921Z,39.76
2018-03-27T01:23:41.864Z,40.15
2018-03-27T01:24:41.826Z,39.76
2018-03-27T01:25:41.807Z,39.95
2018-03-27T01:26:41.839Z,40.05
2018-03-27T01:27:41.757Z,40.05
2018-03-27T01:28:41.735Z,40.05
2018-03-27T01:29:41.707Z,39.95
2018-03-27T01:30:41.756Z,39.95
2018-03-27T01:31:41.659Z,40.44
2018-03-27T01:32:41.642Z,40.15
2018-03-27T01:33:41.646Z,40.05
2018-03-27T01:34:41.589Z,40.53
2018-03-27T01:35:41.562Z,40.05
2018-03-27T01:36:41.549Z,40.25
2018-03-27T01:37:41.526Z,40.15
2018-03-27T01:38:41.498Z,40.05
2018-03-27T01:39:41.477Z,40.25
2018-03-27T01:40:41.437Z,40.25
2018-03-27T01:41:41.442Z,40.34
2018-03-27T01:42:41.388Z,40.25
2018-03-27T01:43:41.368Z,40.34
2018-03-27T01:44:41.352Z,40.15
2018-03-27T01:45:41.318Z,40.53
2018-03-27T01:46:41.288Z,40.63
2018-03-27T01:47:41.261Z,40.73
2018-03-27T01:48:41.250Z,40.73
2018-03-27T01:49:43.097Z,40.83
2018-03-27T01:50:41.200Z,40.73
2018-03-27T01:51:41.176Z,40.73
2018-03-27T01:52:41.167Z,40.53
2018-03-27T01:53:41.148Z,40.53
2018-03-27T01:54:41.104Z,40.63
2018-03-27T01:55:41.092Z,40.63
2018-03-27T01:56:41.042Z,40.63
2018-03-27T01:57:41.040Z,40.73
2018-03-27T01:58:40.994Z,40.73
2018-03-27T01:59:40.971Z,40.73
2018-03-27T02:00:40.948Z,41.02
2018-03-27T02:01:40.938Z,41.11
2018-03-27T02:02:40.894Z,41.02
2018-03-27T02:03:40.864Z,40.92
2018-03-27T02:04:40.846Z,41.11
2018-03-27T02:05:40.818Z,41.02
2018-03-27T02:06:40.794Z,41.11
2018-03-27T02:07:40.770Z,41.21
2018-03-27T02:08:40.757Z,41.02
2018-03-27T02:09:40.729Z,40.92
2018-03-27T02:10:40.705Z,41.21
2018-03-27T02:11:41.604Z,40.83
2018-03-27T02:12:40.654Z,40.92
2018-03-27T02:13:40.640Z,40.83
2018-03-27T02:14:40.604Z,40.92
2018-03-27T02:15:40.586Z,41.21
2018-03-27T02:16:40.557Z,41.21
2018-03-27T02:17:40.531Z,41.21
2018-03-27T02:18:40.510Z,41.50
2018-03-27T02:19:40.512Z,41.21
2018-03-27T02:20:40.459Z,41.11
2018-03-27T02:21:40.457Z,41.29
2018-03-27T02:22:40.409Z,41.31
2018-03-27T02:23:40.375Z,41.41
2018-03-27T02:24:40.355Z,41.50
2018-03-27T02:25:40.328Z,41.41
2018-03-27T02:26:40.301Z,41.41
2018-03-27T02:27:40.309Z,41.41
2018-03-27T02:28:40.254Z,41.50
2018-03-27T02:29:40.231Z,41.50
2018-03-27T02:30:40.219Z,41.60
2018-03-27T02:31:40.202Z,41.60
2018-03-27T02:32:40.157Z,41.48
2018-03-27T02:33:40.142Z,41.41
2018-03-27T02:34:40.103Z,41.48
2018-03-27T02:35:40.097Z,41.60
2018-03-27T02:36:40.062Z,41.41
2018-03-27T02:37:40.029Z,41.21
2018-03-27T02:38:40.021Z,41.31
2018-03-27T02:39:39.994Z,41.31
2018-03-27T02:40:39.974Z,41.31
2018-03-27T02:41:39.940Z,41.21
2018-03-27T02:42:39.906Z,41.31
2018-03-27T02:43:39.891Z,41.31
2018-03-27T02:44:39.861Z,41.41
2018-03-27T02:45:39.863Z,41.21
2018-03-27T02:46:39.804Z,41.21
2018-03-27T02:47:39.784Z,41.11
2018-03-27T02:48:39.763Z,41.70
2018-03-27T02:49:39.745Z,41.79
2018-03-27T02:50:39.708Z,41.60
2018-03-27T02:51:39.691Z,41.70
2018-03-27T02:52:39.665Z,41.79
2018-03-27T02:53:39.637Z,41.77
2018-03-27T02:54:39.687Z,41.87
2018-03-27T02:55:40.134Z,41.99
2018-03-27T02:56:39.582Z,41.87
2018-03-27T02:57:39.553Z,41.97
2018-03-27T02:58:39.517Z,42.28
2018-03-27T02:59:39.487Z,42.07
2018-03-27T03:00:39.465Z,41.99
2018-03-27T03:01:39.451Z,42.07
2018-03-27T03:02:39.417Z,42.08
2018-03-27T03:03:39.420Z,42.16
2018-03-27T03:04:39.360Z,42.16
2018-03-27T03:05:39.342Z,42.16
2018-03-27T03:06:39.324Z,42.28
2018-03-27T03:07:39.297Z,42.16
2018-03-27T03:08:39.277Z,42.18
2018-03-27T03:09:39.249Z,42.45
2018-03-27T03:10:39.232Z,42.35
2018-03-27T03:11:39.200Z,42.45
2018-03-27T03:12:39.175Z,42.45
2018-03-27T03:13:39.152Z,42.45
2018-03-27T03:14:39.120Z,42.35
2018-03-27T03:15:39.112Z,42.16
2018-03-27T03:16:39.072Z,42.16
2018-03-27T03:17:39.045Z,42.45
2018-03-27T03:18:39.021Z,42.55
2018-03-27T03:19:38.990Z,42.55
2018-03-27T03:20:38.968Z,42.45
2018-03-27T03:21:38.946Z,42.45
2018-03-27T03:22:38.936Z,42.45
2018-03-27T03:23:38.892Z,42.55
2018-03-27T03:24:38.871Z,42.65
2018-03-27T03:25:38.845Z,42.65
2018-03-27T03:26:38.818Z,42.65
2018-03-27T03:27:38.816Z,42.55
2018-03-27T03:28:38.799Z,42.55
2018-03-27T03:29:38.745Z,42.65
2018-03-27T03:30:38.731Z,42.45
2018-03-27T03:31:38.701Z,42.65
2018-03-27T03:32:38.672Z,42.45
2018-03-27T03:33:38.644Z,42.45
2018-03-27T03:34:38.620Z,42.35
2018-03-27T03:35:38.591Z,42.74
2018-03-27T03:36:38.572Z,42.93
2018-03-27T03:37:38.542Z,42.83
2018-03-27T03:38:38.526Z,42.83
2018-03-27T03:39:38.505Z,42.83
2018-03-27T03:40:38.467Z,42.83
2018-03-27T03:41:38.466Z,43.03
2018-03-27T03:42:38.424Z,42.93
2018-03-27T03:43:38.395Z,42.93
2018-03-27T03:44:38.389Z,42.93
2018-03-27T03:45:38.340Z,42.93
2018-03-27T03:46:38.325Z,43.03
2018-03-27T03:47:38.299Z,43.03
2018-03-27T03:48:38.271Z,42.93
2018-03-27T03:49:38.253Z,42.93
2018-03-27T03:50:39.126Z,42.93
2018-03-27T03:51:38.201Z,43.03
2018-03-27T03:52:38.175Z,42.83
2018-03-27T03:53:38.144Z,43.03
2018-03-27T03:54:38.124Z,42.83
2018-03-27T03:55:38.116Z,42.93
2018-03-27T03:56:38.071Z,42.83
2018-03-27T03:57:38.048Z,43.03
2018-03-27T03:58:38.026Z,42.93
2018-03-27T03:59:38.003Z,42.93
2018-03-27T04:00:37.982Z,42.93
2018-03-27T04:01:37.955Z,42.93
2018-03-27T04:02:37.928Z,42.93
2018-03-27T04:03:37.904Z,43.03
2018-03-27T04:04:37.884Z,43.03
2018-03-27T04:05:37.862Z,42.93
2018-03-27T04:06:37.827Z,42.83
2018-03-27T04:07:37.806Z,42.83
2018-03-27T04:08:37.780Z,42.93
2018-03-27T04:09:37.747Z,42.93
2018-03-27T04:10:37.728Z,42.83
2018-03-27T04:11:37.716Z,42.93
2018-03-27T04:12:37.678Z,42.93
2018-03-27T04:13:37.653Z,42.93
2018-03-27T04:14:37.628Z,42.93
2018-03-27T04:15:37.606Z,42.93
2018-03-27T04:16:37.587Z,42.93
2018-03-27T04:17:37.558Z,42.83
2018-03-27T04:18:37.536Z,42.93
2018-03-27T04:19:37.510Z,42.93
2018-03-27T04:20:37.486Z,42.93
2018-03-27T04:21:37.516Z,42.93
2018-03-27T04:22:38.152Z,42.93
2018-03-27T04:23:37.404Z,43.03
2018-03-27T04:24:37.378Z,42.83
2018-03-27T04:25:37.355Z,42.93
2018-03-27T04:26:37.330Z,42.83
2018-03-27T04:27:37.305Z,42.93
2018-03-27T04:28:37.278Z,43.03
2018-03-27T04:29:37.262Z,42.83
2018-03-27T04:30:37.236Z,42.83
2018-03-27T04:31:37.206Z,42.91
2018-03-27T04:32:37.186Z,42.83
2018-03-27T04:33:37.164Z,42.93
2018-03-27T04:34:37.130Z,43.01
2018-03-27T04:35:37.104Z,42.74
2018-03-27T04:36:37.080Z,42.83
2018-03-27T04:37:37.063Z,42.72
2018-03-27T04:39:37.006Z,42.91
2018-03-27T04:40:36.982Z,42.83
2018-03-27T04:41:36.959Z,42.83
2018-03-27T04:42:36.936Z,42.82
2018-03-27T04:43:36.906Z,42.91
2018-03-27T04:44:36.889Z,42.82
2018-03-27T04:45:36.862Z,42.91
2018-03-27T04:46:36.831Z,43.01
2018-03-27T04:47:36.816Z,42.83
2018-03-27T04:48:36.787Z,42.83
2018-03-27T04:49:36.768Z,42.82
2018-03-27T04:50:36.742Z,42.72
2018-03-27T04:51:36.717Z,42.83
2018-03-27T04:52:36.687Z,42.72
2018-03-27T04:53:36.664Z,42.72
2018-03-27T04:54:36.634Z,42.91
2018-03-27T04:55:36.612Z,42.72
2018-03-27T04:56:36.616Z,42.72
2018-03-27T04:57:36.562Z,42.72
2018-03-27T04:58:36.542Z,42.82
2018-03-27T04:59:36.516Z,42.82
2018-03-27T05:00:36.484Z,42.82
2018-03-27T05:01:36.465Z,42.72
2018-03-27T05:02:36.437Z,42.91
2018-03-27T05:03:36.412Z,42.83
2018-03-27T05:04:36.381Z,42.72
2018-03-27T05:05:36.360Z,42.72
2018-03-27T05:06:37.141Z,42.82
2018-03-27T05:07:36.318Z,42.72
2018-03-27T05:08:36.284Z,42.62
2018-03-27T05:09:36.262Z,42.52
2018-03-27T05:10:36.243Z,42.62
2018-03-27T05:11:36.217Z,42.72
2018-03-27T05:12:36.184Z,42.62
2018-03-27T05:13:36.163Z,42.82
2018-03-27T05:14:36.132Z,42.72
2018-03-27T05:15:36.112Z,42.72
2018-03-27T05:16:36.086Z,42.72
2018-03-27T05:17:36.062Z,42.62
2018-03-27T05:18:36.041Z,42.62
2018-03-27T05:19:36.018Z,42.72
2018-03-27T05:20:35.982Z,42.82
2018-03-27T05:21:35.960Z,42.72
2018-03-27T05:22:35.936Z,42.72
2018-03-27T05:23:35.923Z,42.62
2018-03-27T05:24:35.890Z,42.62
2018-03-27T05:25:35.864Z,42.62
2018-03-27T05:26:35.842Z,42.62
2018-03-27T05:27:35.812Z,42.62
2018-03-27T05:28:36.654Z,42.72
2018-03-27T05:29:35.765Z,42.62
2018-03-27T05:30:35.734Z,42.62
2018-03-27T05:31:35.717Z,42.62
2018-03-27T05:32:35.684Z,42.62
2018-03-27T05:33:35.664Z,42.72
2018-03-27T05:34:35.634Z,42.62
2018-03-27T05:35:35.617Z,42.62
2018-03-27T05:36:35.587Z,42.72
2018-03-27T05:37:35.568Z,42.72
2018-03-27T05:38:35.544Z,42.72
2018-03-27T05:39:35.512Z,42.62
2018-03-27T05:40:35.483Z,42.72
2018-03-27T05:41:35.460Z,42.72
2018-03-27T05:42:35.446Z,42.62
2018-03-27T05:43:35.418Z,42.62
2018-03-27T05:44:35.386Z,42.62
2018-03-27T05:45:35.370Z,42.72
2018-03-27T05:46:35.340Z,42.72
2018-03-27T05:47:35.313Z,42.62
2018-03-27T05:48:35.287Z,42.62
2018-03-27T05:49:35.266Z,42.72
2018-03-27T05:50:35.238Z,42.62
2018-03-27T05:51:35.208Z,42.72
2018-03-27T05:52:35.184Z,42.72
2018-03-27T05:53:35.160Z,42.62
2018-03-27T05:54:35.142Z,42.72
2018-03-27T05:55:35.114Z,42.62
2018-03-27T05:56:35.085Z,42.62
2018-03-27T05:57:35.063Z,42.62
2018-03-27T05:58:35.043Z,42.62
2018-03-27T05:59:35.010Z,42.62
2018-03-27T06:00:34.986Z,42.62
2018-03-27T06:01:34.962Z,42.72
2018-03-27T06:02:34.937Z,42.72
2018-03-27T06:03:34.908Z,42.50
2018-03-27T06:04:34.892Z,42.62
2018-03-27T06:05:34.860Z,42.72
2018-03-27T06:06:34.840Z,42.62
2018-03-27T06:07:34.808Z,42.52
2018-03-27T06:08:34.783Z,42.52
2018-03-27T06:09:34.764Z,42.62
2018-03-27T06:10:34.733Z,42.72
2018-03-27T06:11:34.708Z,42.62
2018-03-27T06:12:36.660Z,42.62
2018-03-27T06:13:34.663Z,42.60
2018-03-27T06:14:34.639Z,42.72
2018-03-27T06:15:34.611Z,42.72
2018-03-27T06:16:34.594Z,42.70
2018-03-27T06:17:34.564Z,42.89
2018-03-27T06:18:34.540Z,42.70
2018-03-27T06:19:34.512Z,42.60
2018-03-27T06:20:34.486Z,42.62
2018-03-27T06:21:34.464Z,42.62
2018-03-27T06:22:34.434Z,42.79
2018-03-27T06:23:34.410Z,42.91
2018-03-27T06:24:34.386Z,42.60
2018-03-27T06:25:34.364Z,42.70
2018-03-27T06:26:34.338Z,42.82
2018-03-27T06:27:34.316Z,42.72
2018-03-27T06:28:34.302Z,42.89
2018-03-27T06:29:34.258Z,42.82
2018-03-27T06:30:34.238Z,42.82
2018-03-27T06:31:34.210Z,42.72
2018-03-27T06:32:34.186Z,42.70
2018-03-27T06:33:34.158Z,42.60
2018-03-27T06:34:34.133Z,42.60
2018-03-27T06:35:34.110Z,42.70
2018-03-27T06:36:34.086Z,42.70
2018-03-27T06:37:34.061Z,42.89
2018-03-27T06:38:34.036Z,42.60
2018-03-27T06:39:34.008Z,42.89
2018-03-27T06:40:33.982Z,42.99
2018-03-27T06:41:33.958Z,42.99
2018-03-27T06:42:33.928Z,42.99
2018-03-27T06:43:33.911Z,43.08
2018-03-27T06:44:34.668Z,42.79
2018-03-27T06:45:33.858Z,42.99
2018-03-27T06:46:33.833Z,42.89
2018-03-27T06:47:33.865Z,42.99
2018-03-27T06:48:33.778Z,42.99
2018-03-27T06:49:33.765Z,43.08
2018-03-27T06:50:33.746Z,42.79
2018-03-27T06:51:33.703Z,42.99
2018-03-27T06:52:33.681Z,43.08
2018-03-27T06:53:33.677Z,43.08
2018-03-27T06:54:33.630Z,43.08
2018-03-27T06:55:33.612Z,43.08
2018-03-27T06:56:33.585Z,42.99
2018-03-27T06:57:33.556Z,43.08
2018-03-27T06:58:33.537Z,43.08
2018-03-27T06:59:33.502Z,43.28
2018-03-27T07:00:33.485Z,43.08
2018-03-27T07:01:33.454Z,43.18
2018-03-27T07:02:33.431Z,43.08
2018-03-27T07:03:33.485Z,42.89
2018-03-27T07:04:33.379Z,43.08
2018-03-27T07:05:33.437Z,43.08
2018-03-27T07:06:33.375Z,43.37
2018-03-27T07:07:33.313Z,43.28
2018-03-27T07:08:33.291Z,43.08
2018-03-27T07:09:33.274Z,43.18
2018-03-27T07:10:33.287Z,42.99
2018-03-27T07:11:33.200Z,42.99
2018-03-27T07:12:33.192Z,43.18
2018-03-27T07:13:33.170Z,43.18
2018-03-27T07:14:33.127Z,43.18
2018-03-27T07:15:33.104Z,43.18
2018-03-27T07:16:33.075Z,43.08
2018-03-27T07:17:33.060Z,42.99
2018-03-27T07:18:33.044Z,43.08
2018-03-27T07:19:33.003Z,43.08
2018-03-27T07:20:32.981Z,43.18
2018-03-27T07:21:32.956Z,43.08
2018-03-27T07:22:32.928Z,43.08
2018-03-27T07:23:32.899Z,42.99
2018-03-27T07:24:32.876Z,43.08
2018-03-27T07:25:32.853Z,43.08
2018-03-27T07:26:32.831Z,43.08
2018-03-27T07:27:32.796Z,43.47
2018-03-27T07:28:32.783Z,42.89
2018-03-27T07:29:32.751Z,43.08
2018-03-27T07:30:32.724Z,42.89
2018-03-27T07:31:32.699Z,42.99
2018-03-27T07:32:32.761Z,43.18
2018-03-27T07:33:32.664Z,42.89
2018-03-27T07:34:32.625Z,43.28
2018-03-27T07:35:32.605Z,42.89
2018-03-27T07:36:32.579Z,43.08
2018-03-27T07:37:32.544Z,42.89
2018-03-27T07:38:32.527Z,43.08
2018-03-27T07:39:32.509Z,43.18
2018-03-27T07:40:32.524Z,43.08
2018-03-27T07:41:32.449Z,42.99
2018-03-27T07:42:32.425Z,43.18
2018-03-27T07:43:32.420Z,43.18
2018-03-27T07:44:32.369Z,43.08
2018-03-27T07:45:32.347Z,42.97
2018-03-27T07:46:32.322Z,42.99
2018-03-27T07:47:32.295Z,43.18
2018-03-27T07:48:32.274Z,43.18
2018-03-27T07:49:32.280Z,43.28
2018-03-27T07:50:33.188Z,43.08
2018-03-27T07:51:32.190Z,43.28
2018-03-27T07:52:32.174Z,42.99
2018-03-27T07:53:32.145Z,43.08
2018-03-27T07:54:32.121Z,43.18
2018-03-27T07:55:32.094Z,43.16
2018-03-27T07:56:32.065Z,43.08
2018-03-27T07:57:32.046Z,43.16
2018-03-27T07:58:32.026Z,43.18
2018-03-27T07:59:31.995Z,42.99
2018-03-27T08:00:31.969Z,43.06
2018-03-27T08:01:34.691Z,43.08
2018-03-27T08:02:31.921Z,43.28
2018-03-27T08:03:31.900Z,43.08
2018-03-27T08:04:31.869Z,43.16
2018-03-27T08:05:31.839Z,42.89
2018-03-27T08:06:31.827Z,43.28
2018-03-27T08:07:31.794Z,43.08
2018-03-27T08:08:31.767Z,43.06
2018-03-27T08:09:31.741Z,43.08
2018-03-27T08:10:31.719Z,43.28
2018-03-27T08:11:31.685Z,43.16
2018-03-27T08:12:31.675Z,42.87
2018-03-27T08:13:31.637Z,43.16
2018-03-27T08:14:31.623Z,43.06
2018-03-27T08:15:31.588Z,43.26
2018-03-27T08:16:31.564Z,43.06
2018-03-27T08:17:31.537Z,43.28
2018-03-27T08:18:31.517Z,43.08
2018-03-27T08:19:31.486Z,42.97
2018-03-27T08:20:31.470Z,43.28
2018-03-27T08:21:31.440Z,43.06
2018-03-27T08:22:31.420Z,43.06
2018-03-27T08:23:31.396Z,42.97
2018-03-27T08:24:31.370Z,42.97
2018-03-27T08:25:31.331Z,42.87
2018-03-27T08:26:31.316Z,42.97
2018-03-27T08:27:31.333Z,43.16
2018-03-27T08:28:31.263Z,42.97
2018-03-27T08:29:31.242Z,43.45
2018-03-27T08:30:31.211Z,43.26
2018-03-27T08:31:37.724Z,43.54
2018-03-27T08:32:31.159Z,43.45
2018-03-27T08:33:31.134Z,43.16
2018-03-27T08:34:31.113Z,43.45
2018-03-27T08:35:31.083Z,43.45
2018-03-27T08:36:31.083Z,43.26
2018-03-27T08:37:31.030Z,43.26
2018-03-27T08:38:31.011Z,43.06
2018-03-27T08:39:30.981Z,43.54
2018-03-27T08:40:30.958Z,43.26
2018-03-27T08:41:30.936Z,43.35
2018-03-27T08:42:30.911Z,43.16
2018-03-27T08:43:30.877Z,43.84
2018-03-27T08:44:30.857Z,43.35
2018-03-27T08:45:30.832Z,43.35
2018-03-27T08:46:30.806Z,43.16
2018-03-27T08:47:30.776Z,43.84
2018-03-27T08:48:30.749Z,43.26
2018-03-27T08:49:30.728Z,43.93
2018-03-27T08:50:30.708Z,43.26
2018-03-27T08:51:30.679Z,43.64
2018-03-27T08:52:30.655Z,43.54
2018-03-27T08:53:30.630Z,43.93
2018-03-27T08:54:30.602Z,43.64
2018-03-27T08:55:30.575Z,43.74
2018-03-27T08:56:30.550Z,43.74
2018-03-27T08:57:30.524Z,43.84
2018-03-27T08:58:30.498Z,43.84
2018-03-27T08:59:30.480Z,43.84
2018-03-27T09:00:30.447Z,43.54
2018-03-27T09:01:30.452Z,43.84
2018-03-27T09:02:30.399Z,43.54
2018-03-27T09:03:30.371Z,43.64
2018-03-27T09:04:30.356Z,43.35
2018-03-27T09:05:30.321Z,43.35
2018-03-27T09:06:31.207Z,43.54
2018-03-27T09:07:30.279Z,43.74
2018-03-27T09:08:30.246Z,43.45
2018-03-27T09:09:30.223Z,43.45
2018-03-27T09:10:30.195Z,43.45
2018-03-27T09:11:30.171Z,43.45
2018-03-27T09:12:30.145Z,43.35
2018-03-27T09:13:30.131Z,43.45
2018-03-27T09:14:30.095Z,43.33
2018-03-27T09:15:30.075Z,43.84
2018-03-27T09:16:30.049Z,43.93
2018-03-27T09:17:30.021Z,43.81
2018-03-27T09:18:30.009Z,43.93
2018-03-27T09:19:29.974Z,43.81
2018-03-27T09:20:29.941Z,43.74
2018-03-27T09:21:29.921Z,43.74
2018-03-27T09:22:29.923Z,43.81
2018-03-27T09:23:29.869Z,43.84
2018-03-27T09:24:29.849Z,43.64
2018-03-27T09:25:29.817Z,43.74
2018-03-27T09:26:29.796Z,43.64
2018-03-27T09:27:29.761Z,43.64
2018-03-27T09:28:29.741Z,43.64
2018-03-27T09:29:29.713Z,43.91
2018-03-27T09:30:29.691Z,43.52
2018-03-27T09:31:29.665Z,44.01
2018-03-27T09:32:29.646Z,43.45
2018-03-27T09:33:29.611Z,44.42
2018-03-27T09:34:29.585Z,43.52
2018-03-27T09:35:29.580Z,44.20
2018-03-27T09:36:29.533Z,44.10
2018-03-27T09:37:29.507Z,43.81
2018-03-27T09:38:29.484Z,43.81
2018-03-27T09:39:29.478Z,43.74
2018-03-27T09:40:29.429Z,43.74
2018-03-27T09:41:29.405Z,43.74
2018-03-27T09:42:29.391Z,43.84
2018-03-27T09:43:29.355Z,43.81
2018-03-27T09:44:29.351Z,43.91
2018-03-27T09:45:29.344Z,43.62
2018-03-27T09:46:29.280Z,43.91
2018-03-27T09:47:29.258Z,43.81
2018-03-27T09:48:29.239Z,43.72
2018-03-27T09:49:29.207Z,43.81
2018-03-27T09:50:29.184Z,44.01
2018-03-27T09:51:29.193Z,43.91
2018-03-27T09:52:29.125Z,44.20
2018-03-27T09:53:29.103Z,44.20
2018-03-27T09:54:29.085Z,44.29
2018-03-27T09:55:29.050Z,44.01
2018-03-27T09:56:29.025Z,44.39
2018-03-27T09:57:28.999Z,44.29
2018-03-27T09:58:28.995Z,44.01
2018-03-27T09:59:28.954Z,44.20
2018-03-27T10:00:28.918Z,44.20
2018-03-27T10:01:29.721Z,44.01
2018-03-27T10:02:28.875Z,44.10
2018-03-27T10:03:28.853Z,44.10
2018-03-27T10:04:28.820Z,43.91
2018-03-27T10:05:28.796Z,44.49
2018-03-27T10:06:28.773Z,44.39
2018-03-27T10:07:28.745Z,44.10
2018-03-27T10:08:28.721Z,44.39
2018-03-27T10:09:28.710Z,44.49
2018-03-27T10:10:28.671Z,44.10
2018-03-27T10:11:28.665Z,44.68
2018-03-27T10:12:28.625Z,44.29
2018-03-27T10:13:28.596Z,44.39
2018-03-27T10:14:28.567Z,44.59
2018-03-27T10:15:28.545Z,44.78
2018-03-27T10:16:28.521Z,44.39
2018-03-27T10:17:28.493Z,44.68
2018-03-27T10:18:28.479Z,44.49
2018-03-27T10:19:28.439Z,44.49
2018-03-27T10:20:28.417Z,44.49
2018-03-27T10:21:28.391Z,44.29
2018-03-27T10:22:28.365Z,44.59
2018-03-27T10:23:29.225Z,44.68
2018-03-27T10:24:28.315Z,44.68
2018-03-27T10:25:28.287Z,44.68
2018-03-27T10:26:28.259Z,44.68
2018-03-27T10:27:28.238Z,44.97
2018-03-27T10:28:28.215Z,44.78
2018-03-27T10:29:28.184Z,44.78
2018-03-27T10:30:28.161Z,44.78
2018-03-27T10:31:28.130Z,44.87
2018-03-27T10:32:28.100Z,44.78
2018-03-27T10:33:28.964Z,44.87
2018-03-27T10:34:28.072Z,44.97
2018-03-27T10:35:28.039Z,44.78
2018-03-27T10:36:30.732Z,44.78
2018-03-27T10:37:28.046Z,44.87
2018-03-27T10:38:27.980Z,44.87
2018-03-27T10:39:27.941Z,44.78
2018-03-27T10:40:27.910Z,45.07
2018-03-27T10:41:27.945Z,44.87
2018-03-27T10:42:27.862Z,45.07
2018-03-27T10:43:27.827Z,44.97
2018-03-27T10:44:27.801Z,44.97
2018-03-27T10:45:27.856Z,44.97
2018-03-27T10:46:27.757Z,44.97
2018-03-27T10:47:27.758Z,44.87
2018-03-27T10:48:27.717Z,44.87
2018-03-27T10:49:27.672Z,44.87
2018-03-27T10:50:27.651Z,45.26
2018-03-27T10:51:27.620Z,45.07
2018-03-27T10:52:27.601Z,45.26
2018-03-27T10:53:27.576Z,45.17
2018-03-27T10:54:27.589Z,46.13
2018-03-27T10:55:27.518Z,46.90
2018-03-27T10:56:27.513Z,48.44
2018-03-27T10:57:27.465Z,50.38
2018-03-27T10:58:27.474Z,52.40
2018-03-27T10:59:27.433Z,53.75
2018-03-27T11:00:27.391Z,53.95
2018-03-27T11:01:27.369Z,54.11
2018-03-27T11:02:30.230Z,54.98
2018-03-27T11:03:27.320Z,54.40
2018-03-27T11:04:27.301Z,54.69
2018-03-27T11:05:27.275Z,55.46
2018-03-27T11:06:27.251Z,55.54
2018-03-27T11:07:27.282Z,55.36
2018-03-27T11:08:27.186Z,55.73
2018-03-27T11:09:27.161Z,55.82
2018-03-27T11:10:27.146Z,56.01
2018-03-27T11:11:27.104Z,56.49
2018-03-27T11:12:27.111Z,57.14
2018-03-27T11:13:27.051Z,56.95
2018-03-27T11:14:27.026Z,57.05
2018-03-27T11:15:27.007Z,56.88
2018-03-27T11:16:26.975Z,56.95
2018-03-27T11:17:26.977Z,56.85
2018-03-27T11:18:26.954Z,57.43
2018-03-27T11:19:26.893Z,57.34
2018-03-27T11:20:26.869Z,57.43
2018-03-27T11:21:26.841Z,57.62
2018-03-27T11:22:26.827Z,57.62
2018-03-27T11:23:26.794Z,57.82
2018-03-27T11:24:26.767Z,57.92
2018-03-27T11:25:26.740Z,57.82
2018-03-27T11:26:26.717Z,57.72
2018-03-27T11:27:26.689Z,57.92
2018-03-27T11:28:26.655Z,57.92
2018-03-27T11:29:26.722Z,58.11
2018-03-27T11:30:26.813Z,58.59
2018-03-27T11:31:26.589Z,58.69
2018-03-27T11:32:26.582Z,58.88
2018-03-27T11:33:26.525Z,58.97
2018-03-27T11:34:26.517Z,58.78
2018-03-27T11:35:26.485Z,58.59
2018-03-27T11:36:26.465Z,58.49
2018-03-27T11:37:26.429Z,58.78
2018-03-27T11:38:26.425Z,58.97
2018-03-27T11:39:26.384Z,59.07
2018-03-27T11:40:26.382Z,59.27
2018-03-27T11:41:26.334Z,59.36
2018-03-27T11:42:26.313Z,59.55
2018-03-27T11:43:26.263Z,59.27
2018-03-27T11:44:27.772Z,59.17
2018-03-27T11:45:26.241Z,59.17
2018-03-27T11:46:26.205Z,59.45
2018-03-27T11:47:26.164Z,59.75
2018-03-27T11:48:26.139Z,60.13
2018-03-27T11:49:26.127Z,60.13
2018-03-27T11:50:26.753Z,59.94
2018-03-27T11:51:26.165Z,59.94
2018-03-27T11:52:26.050Z,60.03
2018-03-27T11:53:26.106Z,60.06
2018-03-27T11:54:25.993Z,59.75
2018-03-27T11:55:25.970Z,60.23
2018-03-27T11:56:25.953Z,60.26
2018-03-27T11:57:25.902Z,60.42
2018-03-27T11:58:25.908Z,60.52
2018-03-27T11:59:25.886Z,60.52
2018-03-27T12:00:25.886Z,60.45
2018-03-27T12:01:25.854Z,60.23
2018-03-27T12:02:25.881Z,60.35
2018-03-27T12:03:25.741Z,60.35
2018-03-27T12:04:25.727Z,60.45
2018-03-27T12:05:25.736Z,60.35
2018-03-27T12:06:25.739Z,60.55
2018-03-27T12:07:26.098Z,59.87
2018-03-27T12:08:25.597Z,60.45
2018-03-27T12:09:25.617Z,60.45
2018-03-27T12:10:25.555Z,60.26
2018-03-27T12:11:25.528Z,60.35
2018-03-27T12:12:25.486Z,60.55
2018-03-27T12:13:25.494Z,60.45
2018-03-27T12:14:25.507Z,60.35
2018-03-27T12:15:25.436Z,60.58
2018-03-27T12:16:25.384Z,60.10
2018-03-27T12:17:25.370Z,60.19
2018-03-27T12:18:25.346Z,60.00
2018-03-27T12:19:25.306Z,60.00
2018-03-27T12:20:25.291Z,60.19
2018-03-27T12:21:27.764Z,59.32
2018-03-27T12:22:25.251Z,59.61
2018-03-27T12:23:25.204Z,59.32
2018-03-27T12:24:25.330Z,59.16
2018-03-27T12:25:25.183Z,58.87
2018-03-27T12:26:25.200Z,58.77
2018-03-27T12:27:25.128Z,58.39
2018-03-27T12:28:25.068Z,58.00
2018-03-27T12:29:25.050Z,57.90
2018-03-27T12:30:25.023Z,57.62
2018-03-27T12:31:25.001Z,57.23
2018-03-27T12:32:24.970Z,57.32
2018-03-27T12:33:24.950Z,57.04
2018-03-27T12:34:24.914Z,56.87
2018-03-27T12:35:27.768Z,56.94
2018-03-27T12:36:24.869Z,57.16
2018-03-27T12:37:24.845Z,57.06
2018-03-27T12:38:24.826Z,56.87
2018-03-27T12:39:24.796Z,56.48
2018-03-27T12:40:24.766Z,56.20
2018-03-27T12:41:24.750Z,56.29
2018-03-27T12:42:24.725Z,56.22
2018-03-27T12:43:24.692Z,56.20
2018-03-27T12:44:24.667Z,56.03
2018-03-27T12:45:24.644Z,56.13
2018-03-27T12:46:24.620Z,56.03
2018-03-27T12:47:24.596Z,55.65
2018-03-27T12:48:24.570Z,55.65
2018-03-27T12:49:24.541Z,55.65
2018-03-27T12:50:24.553Z,55.83
2018-03-27T12:51:24.492Z,55.35
2018-03-27T12:52:24.466Z,55.26
2018-03-27T12:53:24.434Z,55.35